sensor_id;sensor_type;location;lat;lon;timestamp;pressure;altitude;pressure_sealevel;temperature;humidity
28510;BME280;15723;55.684;37.928;2023-02-19T00:01:14;98643.13;;;-4.90;72.44
28510;BME280;15723;55.684;37.928;2023-02-19T00:03:41;98626.81;;;-5.09;72.10
28510;BME280;15723;55.684;37.928;2023-02-19T00:06:09;98639.31;;;-5.15;73.54
28510;BME280;15723;55.684;37.928;2023-02-19T00:08:37;98647.44;;;-5.26;74.18
28510;BME280;15723;55.684;37.928;2023-02-19T00:11:06;98636.81;;;-5.24;74.90
28510;BME280;15723;55.684;37.928;2023-02-19T00:13:40;98633.06;;;-5.54;74.96
28510;BME280;15723;55.684;37.928;2023-02-19T00:16:16;98619.59;;;-5.42;75.63
28510;BME280;15723;55.684;37.928;2023-02-19T00:18:44;98613.78;;;-5.18;76.69
28510;BME280;15723;55.684;37.928;2023-02-19T00:21:10;98621.25;;;-5.38;72.68
28510;BME280;15723;55.684;37.928;2023-02-19T00:23:37;98603.56;;;-5.35;74.28
28510;BME280;15723;55.684;37.928;2023-02-19T00:26:05;98629.22;;;-5.40;74.61
28510;BME280;15723;55.684;37.928;2023-02-19T00:28:33;98624.69;;;-5.33;73.41
28510;BME280;15723;55.684;37.928;2023-02-19T00:31:06;98608.81;;;-5.33;75.42
28510;BME280;15723;55.684;37.928;2023-02-19T00:33:33;98621.16;;;-5.33;73.73
28510;BME280;15723;55.684;37.928;2023-02-19T00:36:04;98608.81;;;-5.33;74.44
28510;BME280;15723;55.684;37.928;2023-02-19T00:38:34;98607.34;;;-5.46;75.14
28510;BME280;15723;55.684;37.928;2023-02-19T00:41:01;98614.22;;;-5.39;74.50
28510;BME280;15723;55.684;37.928;2023-02-19T00:43:57;98605.25;;;-5.32;74.08
28510;BME280;15723;55.684;37.928;2023-02-19T00:46:44;98614.22;;;-5.39;74.96
28510;BME280;15723;55.684;37.928;2023-02-19T00:49:15;98607.56;;;-5.57;73.49
28510;BME280;15723;55.684;37.928;2023-02-19T00:51:41;98612.84;;;-5.58;73.88
28510;BME280;15723;55.684;37.928;2023-02-19T00:54:09;98619.78;;;-5.51;74.45
28510;BME280;15723;55.684;37.928;2023-02-19T00:56:36;98588.75;;;-5.43;74.88
28510;BME280;15723;55.684;37.928;2023-02-19T00:59:02;98581.13;;;-5.57;76.37
28510;BME280;15723;55.684;37.928;2023-02-19T01:01:30;98596.75;;;-5.46;75.93
28510;BME280;15723;55.684;37.928;2023-02-19T01:03:56;98601.50;;;-5.63;74.64
28510;BME280;15723;55.684;37.928;2023-02-19T01:06:22;98591.56;;;-5.51;76.00
28510;BME280;15723;55.684;37.928;2023-02-19T01:08:49;98588.81;;;-5.46;75.55
28510;BME280;15723;55.684;37.928;2023-02-19T01:11:16;98601.03;;;-5.41;74.58
28510;BME280;15723;55.684;37.928;2023-02-19T01:13:43;98592.31;;;-5.44;74.63
28510;BME280;15723;55.684;37.928;2023-02-19T01:16:17;98580.22;;;-5.56;77.27
28510;BME280;15723;55.684;37.928;2023-02-19T01:18:45;98579.72;;;-5.75;75.93
28510;BME280;15723;55.684;37.928;2023-02-19T01:21:18;98574.44;;;-5.75;76.68
28510;BME280;15723;55.684;37.928;2023-02-19T01:23:45;98580.38;;;-5.65;78.03
28510;BME280;15723;55.684;37.928;2023-02-19T01:26:14;98591.28;;;-5.80;74.90
28510;BME280;15723;55.684;37.928;2023-02-19T01:28:41;98566.59;;;-5.79;76.81
28510;BME280;15723;55.684;37.928;2023-02-19T01:31:11;98572.25;;;-5.54;76.79
28510;BME280;15723;55.684;37.928;2023-02-19T01:33:43;98557.16;;;-5.49;76.22
28510;BME280;15723;55.684;37.928;2023-02-19T01:36:10;98558.25;;;-5.59;76.79
28510;BME280;15723;55.684;37.928;2023-02-19T01:38:37;98546.38;;;-5.40;75.81
28510;BME280;15723;55.684;37.928;2023-02-19T01:41:06;98555.66;;;-5.62;74.91
28510;BME280;15723;55.684;37.928;2023-02-19T01:44:05;98557.53;;;-5.68;74.65
28510;BME280;15723;55.684;37.928;2023-02-19T01:46:40;98546.91;;;-5.64;74.99
28510;BME280;15723;55.684;37.928;2023-02-19T01:49:11;98568.78;;;-5.56;75.04
28510;BME280;15723;55.684;37.928;2023-02-19T01:51:46;98571.72;;;-5.72;75.09
28510;BME280;15723;55.684;37.928;2023-02-19T01:54:16;98543.50;;;-5.71;75.06
28510;BME280;15723;55.684;37.928;2023-02-19T01:56:43;98555.69;;;-5.64;76.68
28510;BME280;15723;55.684;37.928;2023-02-19T01:59:12;98545.72;;;-5.50;75.78
28510;BME280;15723;55.684;37.928;2023-02-19T02:01:38;98541.34;;;-5.12;76.39
28510;BME280;15723;55.684;37.928;2023-02-19T02:04:07;98538.50;;;-5.43;75.03
28510;BME280;15723;55.684;37.928;2023-02-19T02:06:46;98543.19;;;-5.54;74.46
28510;BME280;15723;55.684;37.928;2023-02-19T02:09:15;98540.50;;;-5.53;75.80
28510;BME280;15723;55.684;37.928;2023-02-19T02:12:00;98545.69;;;-5.48;74.33
28510;BME280;15723;55.684;37.928;2023-02-19T02:14:29;98549.13;;;-5.45;74.45
28510;BME280;15723;55.684;37.928;2023-02-19T02:17:19;98546.91;;;-5.64;74.57
28510;BME280;15723;55.684;37.928;2023-02-19T02:22:59;98540.22;;;-5.41;74.47
28510;BME280;15723;55.684;37.928;2023-02-19T02:30:58;98531.31;;;-5.77;74.31
28510;BME280;15723;55.684;37.928;2023-02-19T02:33:36;98533.69;;;-5.64;76.30
28510;BME280;15723;55.684;37.928;2023-02-19T02:36:08;98535.25;;;-5.54;75.04
28510;BME280;15723;55.684;37.928;2023-02-19T02:38:39;98533.69;;;-5.64;73.56
28510;BME280;15723;55.684;37.928;2023-02-19T02:41:08;98544.13;;;-5.57;73.69
28510;BME280;15723;55.684;37.928;2023-02-19T02:43:34;98529.38;;;-5.69;73.46
28510;BME280;15723;55.684;37.928;2023-02-19T02:46:02;98532.25;;;-5.79;72.64
28510;BME280;15723;55.684;37.928;2023-02-19T02:51:38;98532.97;;;-5.73;74.50
28510;BME280;15723;55.684;37.928;2023-02-19T02:54:15;98526.63;;;-5.64;74.22
28510;BME280;15723;55.684;37.928;2023-02-19T02:57:06;98532.97;;;-5.73;73.73
28510;BME280;15723;55.684;37.928;2023-02-19T02:59:39;98528.44;;;-5.66;74.53
28510;BME280;15723;55.684;37.928;2023-02-19T03:02:15;98530.34;;;-5.73;73.85
28510;BME280;15723;55.684;37.928;2023-02-19T03:08:27;98517.13;;;-5.73;73.37
28510;BME280;15723;55.684;37.928;2023-02-19T03:11:07;98509.34;;;-5.40;74.21
28510;BME280;15723;55.684;37.928;2023-02-19T03:13:57;98513.25;;;-5.58;73.17
28510;BME280;15723;55.684;37.928;2023-02-19T03:16:45;98510.75;;;-5.64;73.96
28510;BME280;15723;55.684;37.928;2023-02-19T03:19:35;98506.19;;;-5.56;73.92
28510;BME280;15723;55.684;37.928;2023-02-19T03:22:15;98501.50;;;-5.43;73.96
28510;BME280;15723;55.684;37.928;2023-02-19T03:24:52;98499.28;;;-5.63;74.10
28510;BME280;15723;55.684;37.928;2023-02-19T03:27:39;98505.63;;;-5.72;73.09
28510;BME280;15723;55.684;37.928;2023-02-19T03:30:14;98499.94;;;-5.52;74.70
28510;BME280;15723;55.684;37.928;2023-02-19T03:33:16;98511.69;;;-5.67;73.82
28510;BME280;15723;55.684;37.928;2023-02-19T03:38:44;98492.84;;;-5.50;74.28
28510;BME280;15723;55.684;37.928;2023-02-19T03:43:56;98488.31;;;-5.45;74.51
28510;BME280;15723;55.684;37.928;2023-02-19T03:49:48;98483.88;;;-5.44;74.06
28510;BME280;15723;55.684;37.928;2023-02-19T03:52:40;98485.75;;;-5.48;73.55
28510;BME280;15723;55.684;37.928;2023-02-19T03:55:14;98485.78;;;-5.49;73.82
28510;BME280;15723;55.684;37.928;2023-02-19T03:58:21;98476.75;;;-5.79;75.25
28510;BME280;15723;55.684;37.928;2023-02-19T04:00:57;98469.13;;;-5.53;74.65
28510;BME280;15723;55.684;37.928;2023-02-19T04:03:45;98470.75;;;-5.47;74.19
28510;BME280;15723;55.684;37.928;2023-02-19T04:06:21;98486.03;;;-5.61;73.41
28510;BME280;15723;55.684;37.928;2023-02-19T04:08:52;98463.78;;;-5.51;74.25
28510;BME280;15723;55.684;37.928;2023-02-19T04:11:20;98468.03;;;-5.44;75.69
28510;BME280;15723;55.684;37.928;2023-02-19T04:16:36;98471.56;;;-5.45;75.03
28510;BME280;15723;55.684;37.928;2023-02-19T04:19:09;98468.09;;;-5.47;73.83
28510;BME280;15723;55.684;37.928;2023-02-19T04:21:37;98484.06;;;-5.52;73.37
28510;BME280;15723;55.684;37.928;2023-02-19T04:24:18;98477.13;;;-5.56;73.96
28510;BME280;15723;55.684;37.928;2023-02-19T04:26:48;98471.53;;;-5.82;73.14
28510;BME280;15723;55.684;37.928;2023-02-19T04:29:14;98472.91;;;-5.66;74.05
28510;BME280;15723;55.684;37.928;2023-02-19T04:31:40;98477.34;;;-5.67;73.31
28510;BME280;15723;55.684;37.928;2023-02-19T04:34:06;98465.84;;;-5.66;74.60
28510;BME280;15723;55.684;37.928;2023-02-19T04:36:33;98460.09;;;-5.44;74.08
28510;BME280;15723;55.684;37.928;2023-02-19T04:38:59;98455.75;;;-5.47;73.93
28510;BME280;15723;55.684;37.928;2023-02-19T04:41:27;98458.19;;;-5.39;73.84
28510;BME280;15723;55.684;37.928;2023-02-19T04:43:53;98458.97;;;-5.34;73.72
28510;BME280;15723;55.684;37.928;2023-02-19T04:46:19;98458.19;;;-5.39;74.48
28510;BME280;15723;55.684;37.928;2023-02-19T04:48:45;98450.19;;;-5.36;74.40
28510;BME280;15723;55.684;37.928;2023-02-19T04:51:11;98456.63;;;-5.46;74.15
28510;BME280;15723;55.684;37.928;2023-02-19T04:53:37;98451.81;;;-5.30;74.44
28510;BME280;15723;55.684;37.928;2023-02-19T04:56:08;98454.34;;;-5.26;74.51
28510;BME280;15723;55.684;37.928;2023-02-19T04:58:35;98458.88;;;-5.31;75.46
28510;BME280;15723;55.684;37.928;2023-02-19T05:01:02;98454.69;;;-5.40;74.56
28510;BME280;15723;55.684;37.928;2023-02-19T05:03:28;98447.78;;;-5.10;75.57
28510;BME280;15723;55.684;37.928;2023-02-19T05:05:54;98446.97;;;-5.12;74.43
28510;BME280;15723;55.684;37.928;2023-02-19T05:08:21;98453.84;;;-5.05;74.89
28510;BME280;15723;55.684;37.928;2023-02-19T05:10:47;98448.25;;;-5.29;73.76
28510;BME280;15723;55.684;37.928;2023-02-19T05:13:13;98451.63;;;-5.23;74.36
28510;BME280;15723;55.684;37.928;2023-02-19T05:15:39;98447.03;;;-5.15;74.38
28510;BME280;15723;55.684;37.928;2023-02-19T05:18:05;98447.19;;;-5.22;74.81
28510;BME280;15723;55.684;37.928;2023-02-19T05:20:31;98441.09;;;-5.24;73.87
28510;BME280;15723;55.684;37.928;2023-02-19T05:22:58;98442.94;;;-5.28;74.45
28510;BME280;15723;55.684;37.928;2023-02-19T05:25:24;98443.59;;;-5.18;74.72
28510;BME280;15723;55.684;37.928;2023-02-19T05:27:50;98450.22;;;-5.38;73.94
28510;BME280;15723;55.684;37.928;2023-02-19T05:30:36;98433.16;;;-5.24;74.13
28510;BME280;15723;55.684;37.928;2023-02-19T05:33:02;98441.75;;;-5.15;75.33
28510;BME280;15723;55.684;37.928;2023-02-19T05:35:28;98431.34;;;-5.22;74.67
28510;BME280;15723;55.684;37.928;2023-02-19T05:37:54;98429.03;;;-5.00;75.52
28510;BME280;15723;55.684;37.928;2023-02-19T05:40:20;98440.47;;;-5.00;74.50
28510;BME280;15723;55.684;37.928;2023-02-19T05:42:47;98440.47;;;-5.00;74.25
28510;BME280;15723;55.684;37.928;2023-02-19T05:45:13;98435.38;;;-5.08;74.67
28510;BME280;15723;55.684;37.928;2023-02-19T05:47:39;98422.09;;;-5.05;74.08
28510;BME280;15723;55.684;37.928;2023-02-19T05:50:05;98425.72;;;-5.09;73.85
28510;BME280;15723;55.684;37.928;2023-02-19T05:52:32;98431.19;;;-4.81;74.57
28510;BME280;15723;55.684;37.928;2023-02-19T05:54:58;98432.13;;;-4.85;73.27
28510;BME280;15723;55.684;37.928;2023-02-19T05:57:24;98428.41;;;-4.76;74.06
28510;BME280;15723;55.684;37.928;2023-02-19T05:59:50;98424.19;;;-4.85;73.52
28510;BME280;15723;55.684;37.928;2023-02-19T06:02:16;98430.34;;;-4.83;72.98
28510;BME280;15723;55.684;37.928;2023-02-19T06:04:42;98419.63;;;-4.78;73.29
28510;BME280;15723;55.684;37.928;2023-02-19T06:07:08;98421.81;;;-4.61;73.00
28510;BME280;15723;55.684;37.928;2023-02-19T06:09:34;98425.50;;;-4.67;73.62
28510;BME280;15723;55.684;37.928;2023-02-19T06:12:00;98419.00;;;-4.55;74.26
28510;BME280;15723;55.684;37.928;2023-02-19T06:14:27;98411.84;;;-4.52;73.30
28510;BME280;15723;55.684;37.928;2023-02-19T06:16:53;98418.72;;;-4.46;72.74
28510;BME280;15723;55.684;37.928;2023-02-19T06:19:19;98420.69;;;-4.53;72.41
28510;BME280;15723;55.684;37.928;2023-02-19T06:21:45;98418.47;;;-4.68;71.96
28510;BME280;15723;55.684;37.928;2023-02-19T06:24:14;98409.97;;;-4.79;71.48
28510;BME280;15723;55.684;37.928;2023-02-19T06:26:40;98412.56;;;-4.47;72.45
28510;BME280;15723;55.684;37.928;2023-02-19T06:29:06;98419.81;;;-4.53;72.11
28510;BME280;15723;55.684;37.928;2023-02-19T06:31:32;98412.06;;;-4.28;71.79
28510;BME280;15723;55.684;37.928;2023-02-19T06:33:58;98403.16;;;-4.57;71.61
28510;BME280;15723;55.684;37.928;2023-02-19T06:36:27;98410.88;;;-4.18;72.44
28510;BME280;15723;55.684;37.928;2023-02-19T06:38:58;98403.81;;;-4.49;72.36
28510;BME280;15723;55.684;37.928;2023-02-19T06:41:25;98407.78;;;-4.32;70.19
28510;BME280;15723;55.684;37.928;2023-02-19T06:43:51;98409.81;;;-4.13;72.58
28510;BME280;15723;55.684;37.928;2023-02-19T06:46:17;98398.47;;;-4.47;71.93
28510;BME280;15723;55.684;37.928;2023-02-19T06:48:44;98397.00;;;-4.26;72.15
28510;BME280;15723;55.684;37.928;2023-02-19T06:51:13;98397.34;;;-4.38;72.87
28510;BME280;15723;55.684;37.928;2023-02-19T06:53:39;98403.25;;;-4.29;70.98
28510;BME280;15723;55.684;37.928;2023-02-19T06:56:20;98387.31;;;-4.58;72.71
28510;BME280;15723;55.684;37.928;2023-02-19T06:58:50;98382.78;;;-4.24;73.21
28510;BME280;15723;55.684;37.928;2023-02-19T07:01:17;98395.81;;;-4.47;73.22
28510;BME280;15723;55.684;37.928;2023-02-19T07:03:43;98392.06;;;-4.38;72.43
28510;BME280;15723;55.684;37.928;2023-02-19T07:06:09;98386.81;;;-4.40;71.98
28510;BME280;15723;55.684;37.928;2023-02-19T07:08:35;98402.38;;;-4.29;69.74
28510;BME280;15723;55.684;37.928;2023-02-19T07:11:02;98389.69;;;-4.18;72.27
28510;BME280;15723;55.684;37.928;2023-02-19T07:13:28;98378.91;;;-4.42;73.23
28510;BME280;15723;55.684;37.928;2023-02-19T07:16:03;98390.97;;;-4.31;71.13
28510;BME280;15723;55.684;37.928;2023-02-19T07:18:30;98383.22;;;-4.10;73.72
28510;BME280;15723;55.684;37.928;2023-02-19T07:21:07;98376.47;;;-4.20;70.74
28510;BME280;15723;55.684;37.928;2023-02-19T07:23:34;98386.47;;;-3.98;72.41
28510;BME280;15723;55.684;37.928;2023-02-19T07:26:01;98359.72;;;-4.20;71.77
28510;BME280;15723;55.684;37.928;2023-02-19T07:28:27;98372.88;;;-4.17;74.13
28510;BME280;15723;55.684;37.928;2023-02-19T07:30:59;98366.84;;;-4.22;71.57
28510;BME280;15723;55.684;37.928;2023-02-19T07:33:27;98368.19;;;-3.80;71.42
28510;BME280;15723;55.684;37.928;2023-02-19T07:35:53;98363.06;;;-4.43;70.91
28510;BME280;15723;55.684;37.928;2023-02-19T07:38:21;98375.25;;;-4.37;72.81
28510;BME280;15723;55.684;37.928;2023-02-19T07:40:59;98367.13;;;-4.31;70.01
28510;BME280;15723;55.684;37.928;2023-02-19T07:43:29;98368.13;;;-4.06;72.92
28510;BME280;15723;55.684;37.928;2023-02-19T07:45:56;98358.59;;;-3.84;72.34
28510;BME280;15723;55.684;37.928;2023-02-19T07:48:22;98360.53;;;-3.89;70.68
28510;BME280;15723;55.684;37.928;2023-02-19T07:50:53;98357.16;;;-3.94;70.56
28510;BME280;15723;55.684;37.928;2023-02-19T07:53:21;98347.91;;;-4.08;72.56
28510;BME280;15723;55.684;37.928;2023-02-19T07:55:48;98363.13;;;-3.87;71.37
28510;BME280;15723;55.684;37.928;2023-02-19T07:58:14;98345.25;;;-3.81;71.06
28510;BME280;15723;55.684;37.928;2023-02-19T08:00:41;98353.09;;;-3.78;69.96
28510;BME280;15723;55.684;37.928;2023-02-19T08:03:08;98355.09;;;-4.14;70.41
28510;BME280;15723;55.684;37.928;2023-02-19T08:05:39;98351.38;;;-4.06;69.96
28510;BME280;15723;55.684;37.928;2023-02-19T08:08:07;98339.38;;;-4.20;69.86
28510;BME280;15723;55.684;37.928;2023-02-19T08:10:34;98343.69;;;-4.16;72.16
28510;BME280;15723;55.684;37.928;2023-02-19T08:13:19;98337.78;;;-3.96;70.58
28510;BME280;15723;55.684;37.928;2023-02-19T08:16:10;98345.88;;;-4.00;70.69
28510;BME280;15723;55.684;37.928;2023-02-19T08:18:37;98333.97;;;-4.45;73.22
28510;BME280;15723;55.684;37.928;2023-02-19T08:21:03;98349.31;;;-4.26;72.49
28510;BME280;15723;55.684;37.928;2023-02-19T08:23:30;98360.63;;;-4.21;71.66
28510;BME280;15723;55.684;37.928;2023-02-19T08:25:57;98352.56;;;-4.48;71.21
28510;BME280;15723;55.684;37.928;2023-02-19T08:28:24;98320.84;;;-4.20;73.31
28510;BME280;15723;55.684;37.928;2023-02-19T08:30:50;98334.94;;;-4.49;70.69
28510;BME280;15723;55.684;37.928;2023-02-19T08:33:18;98333.75;;;-4.09;71.57
28510;BME280;15723;55.684;37.928;2023-02-19T08:35:45;98333.50;;;-4.00;72.28
28510;BME280;15723;55.684;37.928;2023-02-19T08:38:13;98325.75;;;-4.06;73.55
28510;BME280;15723;55.684;37.928;2023-02-19T08:40:41;98329.97;;;-4.00;73.48
28510;BME280;15723;55.684;37.928;2023-02-19T08:43:10;98324.94;;;-3.82;72.23
28510;BME280;15723;55.684;37.928;2023-02-19T08:45:38;98326.06;;;-3.61;71.75
28510;BME280;15723;55.684;37.928;2023-02-19T08:48:04;98324.91;;;-3.80;70.93
28510;BME280;15723;55.684;37.928;2023-02-19T08:50:31;98327.81;;;-3.88;73.31
28510;BME280;15723;55.684;37.928;2023-02-19T08:53:01;98322.78;;;-3.69;71.61
28510;BME280;15723;55.684;37.928;2023-02-19T08:55:28;98318.66;;;-3.51;74.31
28510;BME280;15723;55.684;37.928;2023-02-19T08:57:55;98299.56;;;-3.36;73.18
28510;BME280;15723;55.684;37.928;2023-02-19T09:00:21;98323.03;;;-3.50;70.77
28510;BME280;15723;55.684;37.928;2023-02-19T09:02:48;98307.28;;;-3.55;71.59
28510;BME280;15723;55.684;37.928;2023-02-19T09:05:15;98313.75;;;-3.63;73.43
28510;BME280;15723;55.684;37.928;2023-02-19T09:07:42;98305.28;;;-3.74;71.90
28510;BME280;15723;55.684;37.928;2023-02-19T09:10:12;98299.50;;;-3.87;71.75
28510;BME280;15723;55.684;37.928;2023-02-19T09:12:39;98297.75;;;-3.34;71.73
28510;BME280;15723;55.684;37.928;2023-02-19T09:15:06;98306.25;;;-3.24;71.73
28510;BME280;15723;55.684;37.928;2023-02-19T09:17:33;98300.53;;;-3.38;69.38
28510;BME280;15723;55.684;37.928;2023-02-19T09:19:59;98300.31;;;-3.57;70.50
28510;BME280;15723;55.684;37.928;2023-02-19T09:22:26;98308.75;;;-3.46;70.22
28510;BME280;15723;55.684;37.928;2023-02-19T09:24:52;98287.84;;;-3.29;71.16
28510;BME280;15723;55.684;37.928;2023-02-19T09:27:19;98294.88;;;-3.03;71.58
28510;BME280;15723;55.684;37.928;2023-02-19T09:29:46;98275.00;;;-3.16;72.51
28510;BME280;15723;55.684;37.928;2023-02-19T09:32:13;98287.19;;;-2.86;70.48
28510;BME280;15723;55.684;37.928;2023-02-19T09:34:39;98289.84;;;-3.10;69.38
28510;BME280;15723;55.684;37.928;2023-02-19T09:37:06;98287.91;;;-3.57;69.43
28510;BME280;15723;55.684;37.928;2023-02-19T09:39:33;98285.13;;;-3.80;71.14
28510;BME280;15723;55.684;37.928;2023-02-19T09:42:07;98290.91;;;-3.67;70.15
28510;BME280;15723;55.684;37.928;2023-02-19T09:44:38;98269.47;;;-3.88;72.50
28510;BME280;15723;55.684;37.928;2023-02-19T09:47:29;98278.03;;;-4.06;71.80
28510;BME280;15723;55.684;37.928;2023-02-19T09:50:01;98269.47;;;-3.88;71.08
28510;BME280;15723;55.684;37.928;2023-02-19T09:55:13;98272.47;;;-3.72;70.27
28510;BME280;15723;55.684;37.928;2023-02-19T09:57:39;98264.41;;;-3.67;71.85
28510;BME280;15723;55.684;37.928;2023-02-19T10:00:20;98250.06;;;-3.62;70.77
28510;BME280;15723;55.684;37.928;2023-02-19T10:02:51;98258.22;;;-3.68;71.08
28510;BME280;15723;55.684;37.928;2023-02-19T10:05:17;98263.13;;;-3.56;69.63
28510;BME280;15723;55.684;37.928;2023-02-19T10:07:46;98256.41;;;-3.41;69.98
28510;BME280;15723;55.684;37.928;2023-02-19T10:12:45;98241.94;;;-3.31;70.50
28510;BME280;15723;55.684;37.928;2023-02-19T10:15:28;98253.06;;;-3.46;71.30
28510;BME280;15723;55.684;37.928;2023-02-19T10:17:56;98252.41;;;-3.53;70.46
28510;BME280;15723;55.684;37.928;2023-02-19T10:20:23;98240.72;;;-3.47;70.75
28510;BME280;15723;55.684;37.928;2023-02-19T10:23:03;98248.06;;;-3.55;73.69
28510;BME280;15723;55.684;37.928;2023-02-19T10:25:31;98235.03;;;-3.61;71.66
28510;BME280;15723;55.684;37.928;2023-02-19T10:27:59;98245.47;;;-3.83;72.71
28510;BME280;15723;55.684;37.928;2023-02-19T10:30:31;98240.13;;;-3.55;73.15
28510;BME280;15723;55.684;37.928;2023-02-19T10:33:02;98250.41;;;-3.46;73.38
28510;BME280;15723;55.684;37.928;2023-02-19T10:35:30;98237.56;;;-3.58;73.07
28510;BME280;15723;55.684;37.928;2023-02-19T10:38:00;98250.41;;;-3.46;72.46
28510;BME280;15723;55.684;37.928;2023-02-19T10:40:28;98252.13;;;-3.70;71.97
28510;BME280;15723;55.684;37.928;2023-02-19T10:43:03;98253.09;;;-3.74;73.90
28510;BME280;15723;55.684;37.928;2023-02-19T10:45:45;98253.38;;;-3.55;73.59
28510;BME280;15723;55.684;37.928;2023-02-19T10:48:24;98255.63;;;-3.69;72.09
28510;BME280;15723;55.684;37.928;2023-02-19T10:50:54;98252.41;;;-3.53;73.64
28510;BME280;15723;55.684;37.928;2023-02-19T10:53:39;98249.41;;;-3.43;72.34
28510;BME280;15723;55.684;37.928;2023-02-19T10:56:07;98247.63;;;-3.43;71.18
28510;BME280;15723;55.684;37.928;2023-02-19T10:58:34;98234.28;;;-3.15;73.44
28510;BME280;15723;55.684;37.928;2023-02-19T11:01:17;98239.47;;;-3.37;71.99
28510;BME280;15723;55.684;37.928;2023-02-19T11:03:52;98243.41;;;-3.49;71.32
28510;BME280;15723;55.684;37.928;2023-02-19T11:06:37;98253.91;;;-3.46;70.81
28510;BME280;15723;55.684;37.928;2023-02-19T11:09:04;98239.06;;;-3.25;71.75
28510;BME280;15723;55.684;37.928;2023-02-19T11:11:35;98234.56;;;-2.99;72.16
28510;BME280;15723;55.684;37.928;2023-02-19T11:14:20;98251.97;;;-3.16;70.45
28510;BME280;15723;55.684;37.928;2023-02-19T11:16:51;98236.00;;;-3.14;70.03
28510;BME280;15723;55.684;37.928;2023-02-19T11:19:29;98224.47;;;-3.13;72.15
28510;BME280;15723;55.684;37.928;2023-02-19T11:21:57;98231.56;;;-3.13;70.33
28510;BME280;15723;55.684;37.928;2023-02-19T11:24:31;98238.38;;;-3.06;70.11
28510;BME280;15723;55.684;37.928;2023-02-19T11:27:03;98227.22;;;-3.41;69.67
28510;BME280;15723;55.684;37.928;2023-02-19T11:29:30;98235.75;;;-3.31;69.61
28510;BME280;15723;55.684;37.928;2023-02-19T11:32:27;98221.69;;;-3.10;69.91
28510;BME280;15723;55.684;37.928;2023-02-19T11:35:20;98222.09;;;-2.96;71.39
28510;BME280;15723;55.684;37.928;2023-02-19T11:37:59;98228.78;;;-3.10;69.27
28510;BME280;15723;55.684;37.928;2023-02-19T11:46:11;98231.81;;;-2.73;68.80
28510;BME280;15723;55.684;37.928;2023-02-19T11:57:29;98220.91;;;-2.42;66.62
28510;BME280;15723;55.684;37.928;2023-02-19T12:00:25;98214.91;;;-2.25;66.96
28510;BME280;15723;55.684;37.928;2023-02-19T12:03:20;98215.53;;;-2.40;68.18
28510;BME280;15723;55.684;37.928;2023-02-19T12:17:52;98220.81;;;-3.34;70.09
28510;BME280;15723;55.684;37.928;2023-02-19T12:25:59;98202.13;;;-3.07;69.94
28510;BME280;15723;55.684;37.928;2023-02-19T12:34:06;98193.81;;;-3.22;72.83
28510;BME280;15723;55.684;37.928;2023-02-19T12:47:17;98194.63;;;-3.20;72.92
28510;BME280;15723;55.684;37.928;2023-02-19T12:49:57;98197.69;;;-3.07;72.43
28510;BME280;15723;55.684;37.928;2023-02-19T12:52:32;98200.66;;;-2.91;71.62
28510;BME280;15723;55.684;37.928;2023-02-19T12:55:27;98209.72;;;-2.97;72.91
28510;BME280;15723;55.684;37.928;2023-02-19T12:57:55;98208.53;;;-3.38;71.04
28510;BME280;15723;55.684;37.928;2023-02-19T13:00:28;98211.75;;;-3.28;71.99
28510;BME280;15723;55.684;37.928;2023-02-19T13:03:04;98202.00;;;-3.28;72.49
28510;BME280;15723;55.684;37.928;2023-02-19T13:05:41;98223.28;;;-3.29;71.26
28510;BME280;15723;55.684;37.928;2023-02-19T13:08:36;98216.50;;;-3.13;73.06
28510;BME280;15723;55.684;37.928;2023-02-19T13:11:15;98219.78;;;-3.30;71.13
28510;BME280;15723;55.684;37.928;2023-02-19T13:13:50;98219.44;;;-3.21;73.38
28510;BME280;15723;55.684;37.928;2023-02-19T13:16:21;98212.69;;;-3.29;71.56
28510;BME280;15723;55.684;37.928;2023-02-19T13:18:54;98216.72;;;-2.94;72.74
28510;BME280;15723;55.684;37.928;2023-02-19T13:21:26;98219.91;;;-3.09;70.63
28510;BME280;15723;55.684;37.928;2023-02-19T13:24:20;98211.03;;;-3.08;71.61
28510;BME280;15723;55.684;37.928;2023-02-19T13:38:49;98214.94;;;-3.68;73.96
28510;BME280;15723;55.684;37.928;2023-02-19T13:41:25;98207.09;;;-3.71;73.79
28510;BME280;15723;55.684;37.928;2023-02-19T13:43:57;98220.78;;;-3.85;72.37
28510;BME280;15723;55.684;37.928;2023-02-19T13:46:24;98209.38;;;-3.87;73.56
28510;BME280;15723;55.684;37.928;2023-02-19T13:51:58;98214.63;;;-3.59;74.73
28510;BME280;15723;55.684;37.928;2023-02-19T13:54:32;98224.63;;;-3.42;74.51
28510;BME280;15723;55.684;37.928;2023-02-19T13:59:52;98206.59;;;-3.58;74.71
28510;BME280;15723;55.684;37.928;2023-02-19T14:09:43;98202.06;;;-3.81;74.35
28510;BME280;15723;55.684;37.928;2023-02-19T14:14:50;98204.44;;;-3.98;73.58
28510;BME280;15723;55.684;37.928;2023-02-19T14:17:27;98181.75;;;-3.80;76.05
28510;BME280;15723;55.684;37.928;2023-02-19T14:33:17;98176.81;;;-3.91;74.37
28510;BME280;15723;55.684;37.928;2023-02-19T14:38:35;98186.28;;;-3.84;74.21
28510;BME280;15723;55.684;37.928;2023-02-19T14:41:03;98183.38;;;-3.76;74.81
28510;BME280;15723;55.684;37.928;2023-02-19T14:43:32;98181.09;;;-3.87;75.17
28510;BME280;15723;55.684;37.928;2023-02-19T14:48:48;98176.81;;;-4.17;76.31
28510;BME280;15723;55.684;37.928;2023-02-19T14:51:34;98174.06;;;-3.88;76.99
28510;BME280;15723;55.684;37.928;2023-02-19T14:54:15;98176.16;;;-3.97;75.49
28510;BME280;15723;55.684;37.928;2023-02-19T14:56:47;98181.63;;;-4.02;75.91
28510;BME280;15723;55.684;37.928;2023-02-19T14:59:23;98165.75;;;-4.03;74.12
28510;BME280;15723;55.684;37.928;2023-02-19T15:02:11;98166.81;;;-4.09;75.34
28510;BME280;15723;55.684;37.928;2023-02-19T15:04:38;98169.19;;;-3.75;75.58
28510;BME280;15723;55.684;37.928;2023-02-19T15:07:07;98172.78;;;-4.29;75.17
28510;BME280;15723;55.684;37.928;2023-02-19T15:09:41;98180.63;;;-4.26;76.64
28510;BME280;15723;55.684;37.928;2023-02-19T15:12:12;98174.47;;;-4.26;76.62
28510;BME280;15723;55.684;37.928;2023-02-19T15:14:39;98185.34;;;-4.09;76.56
28510;BME280;15723;55.684;37.928;2023-02-19T15:17:09;98182.19;;;-4.20;76.91
28510;BME280;15723;55.684;37.928;2023-02-19T15:19:37;98176.19;;;-4.25;76.96